createdAt,value
2023-01-27T00:00:07.787Z,1017.47
2023-01-27T00:01:07.769Z,1017.49
2023-01-27T00:02:07.811Z,1017.51
2023-01-27T00:03:07.754Z,1017.53
2023-01-27T00:04:07.740Z,1017.53
2023-01-27T00:05:07.728Z,1017.54
2023-01-27T00:06:07.724Z,1017.54
2023-01-27T00:08:02.831Z,1017.54
2023-01-27T00:09:03.613Z,1017.58
2023-01-27T00:10:03.606Z,1017.59
2023-01-27T00:11:03.599Z,1017.61
2023-01-27T00:12:03.582Z,1017.63
2023-01-27T00:13:03.626Z,1017.61
2023-01-27T00:14:03.569Z,1017.58
2023-01-27T00:15:03.559Z,1017.59
2023-01-27T00:16:03.658Z,1017.57
2023-01-27T00:17:03.531Z,1017.56
2023-01-27T00:18:03.529Z,1017.55
2023-01-27T00:19:03.637Z,1017.54
2023-01-27T00:20:04.055Z,1017.52
2023-01-27T00:21:03.492Z,1017.48
2023-01-27T00:22:03.485Z,1017.47
2023-01-27T00:23:03.483Z,1017.47
2023-01-27T00:24:03.510Z,1017.49
2023-01-27T00:25:03.631Z,1017.51
2023-01-27T00:26:03.442Z,1017.51
2023-01-27T00:27:03.433Z,1017.53
2023-01-27T00:28:03.431Z,1017.49
2023-01-27T00:29:03.413Z,1017.48
2023-01-27T00:30:03.407Z,1017.48
2023-01-27T00:31:03.787Z,1017.50
2023-01-27T00:32:03.381Z,1017.53
2023-01-27T00:33:03.376Z,1017.54
2023-01-27T00:34:03.365Z,1017.56
2023-01-27T00:35:03.354Z,1017.57
2023-01-27T00:36:03.337Z,1017.56
2023-01-27T00:37:03.378Z,1017.58
2023-01-27T00:38:03.319Z,1017.60
2023-01-27T00:39:03.305Z,1017.62
2023-01-27T00:40:03.300Z,1017.65
2023-01-27T00:41:03.279Z,1017.67
2023-01-27T00:42:03.279Z,1017.68
2023-01-27T00:43:03.437Z,1017.65
2023-01-27T00:44:03.259Z,1017.68
2023-01-27T00:45:03.238Z,1017.67
2023-01-27T00:46:03.309Z,1017.70
2023-01-27T00:47:03.224Z,1017.72
2023-01-27T00:48:03.219Z,1017.73
2023-01-27T00:49:03.540Z,1017.73
2023-01-27T00:50:03.189Z,1017.77
2023-01-27T00:51:03.189Z,1017.81
2023-01-27T00:52:03.177Z,1017.84
2023-01-27T00:53:03.160Z,1017.85
2023-01-27T00:54:03.155Z,1017.84
2023-01-27T00:55:03.309Z,1017.83
2023-01-27T00:56:03.128Z,1017.81
2023-01-27T00:57:03.111Z,1017.80
2023-01-27T00:58:03.118Z,1017.85
2023-01-27T00:59:03.114Z,1017.87
2023-01-27T01:00:03.092Z,1017.89
2023-01-27T01:01:03.261Z,1017.85
2023-01-27T01:02:03.113Z,1017.85
2023-01-27T01:03:03.104Z,1017.83
2023-01-27T01:04:03.052Z,1017.84
2023-01-27T01:05:03.033Z,1017.87
2023-01-27T01:06:03.030Z,1017.91
2023-01-27T01:07:04.449Z,1017.91
2023-01-27T01:08:11.483Z,1017.92
2023-01-27T01:09:02.988Z,1017.91
2023-01-27T01:10:02.990Z,1017.88
2023-01-27T01:11:03.020Z,1017.88
2023-01-27T01:12:02.969Z,1017.87
2023-01-27T01:13:03.127Z,1017.88
2023-01-27T01:14:02.967Z,1017.89
2023-01-27T01:15:02.962Z,1017.91
2023-01-27T01:16:02.969Z,1017.92
2023-01-27T01:17:02.916Z,1017.99
2023-01-27T01:18:02.908Z,1018.00
2023-01-27T01:19:03.061Z,1018.02
2023-01-27T01:20:02.878Z,1018.03
2023-01-27T01:21:02.891Z,1018.00
2023-01-27T01:22:04.808Z,1017.99
2023-01-27T01:23:02.851Z,1018.03
2023-01-27T01:24:02.889Z,1018.04
2023-01-27T01:25:03.008Z,1018.07
2023-01-27T01:26:02.824Z,1018.06
2023-01-27T01:27:02.816Z,1018.08
2023-01-27T01:28:02.803Z,1018.10
2023-01-27T01:29:02.786Z,1018.10
2023-01-27T01:30:02.777Z,1018.12
2023-01-27T01:31:03.061Z,1018.14
2023-01-27T01:32:02.780Z,1018.17
2023-01-27T01:33:02.749Z,1018.16
2023-01-27T01:34:02.737Z,1018.19
2023-01-27T01:35:02.730Z,1018.16
2023-01-27T01:36:02.717Z,1018.15
2023-01-27T01:37:02.874Z,1018.13
2023-01-27T01:38:02.705Z,1018.10
2023-01-27T01:39:02.695Z,1018.08
2023-01-27T01:40:02.688Z,1018.05
2023-01-27T01:41:02.667Z,1018.05
2023-01-27T01:42:02.679Z,1018.09
2023-01-27T01:43:02.682Z,1018.13
2023-01-27T01:44:02.633Z,1018.22
2023-01-27T01:45:02.628Z,1018.24
2023-01-27T01:46:02.613Z,1018.26
2023-01-27T01:47:02.600Z,1018.27
2023-01-27T01:48:02.604Z,1018.31
2023-01-27T01:49:02.660Z,1018.34
2023-01-27T01:50:02.575Z,1018.40
2023-01-27T01:51:02.562Z,1018.41
2023-01-27T01:52:02.550Z,1018.41
2023-01-27T01:53:02.535Z,1018.42
2023-01-27T01:54:02.531Z,1018.40
2023-01-27T01:55:02.688Z,1018.41
2023-01-27T01:56:02.519Z,1018.40
2023-01-27T01:57:02.511Z,1018.42
2023-01-27T01:58:02.490Z,1018.39
2023-01-27T01:59:02.475Z,1018.41
2023-01-27T02:00:02.491Z,1018.41
2023-01-27T02:01:02.513Z,1018.45
2023-01-27T02:02:02.503Z,1018.45
2023-01-27T02:03:02.446Z,1018.45
2023-01-27T02:04:02.432Z,1018.48
2023-01-27T02:05:02.416Z,1018.47
2023-01-27T02:06:02.409Z,1018.45
2023-01-27T02:07:02.575Z,1018.45
2023-01-27T02:08:02.392Z,1018.44
2023-01-27T02:09:02.383Z,1018.46
2023-01-27T02:10:02.371Z,1018.50
2023-01-27T02:11:02.354Z,1018.52
2023-01-27T02:12:02.358Z,1018.54
2023-01-27T02:13:02.502Z,1018.53
2023-01-27T02:14:02.322Z,1018.49
2023-01-27T02:15:02.310Z,1018.47
2023-01-27T02:16:02.304Z,1018.45
2023-01-27T02:17:02.297Z,1018.46
2023-01-27T02:18:02.296Z,1018.47
2023-01-27T02:19:02.311Z,1018.51
2023-01-27T02:20:02.289Z,1018.50
2023-01-27T02:21:02.260Z,1018.50
2023-01-27T02:22:02.239Z,1018.51
2023-01-27T02:23:02.228Z,1018.49
2023-01-27T02:24:02.296Z,1018.46
2023-01-27T02:25:02.385Z,1018.45
2023-01-27T02:26:02.203Z,1018.47
2023-01-27T02:27:02.188Z,1018.52
2023-01-27T02:28:02.184Z,1018.57
2023-01-27T02:29:02.164Z,1018.62
2023-01-27T02:30:02.172Z,1018.64
2023-01-27T02:31:02.450Z,1018.66
2023-01-27T02:32:02.136Z,1018.67
2023-01-27T02:33:02.125Z,1018.64
2023-01-27T02:34:02.127Z,1018.65
2023-01-27T02:35:02.104Z,1018.66
2023-01-27T02:36:02.100Z,1018.67
2023-01-27T02:37:02.252Z,1018.64
2023-01-27T02:38:02.079Z,1018.66
2023-01-27T02:39:02.069Z,1018.67
2023-01-27T02:40:02.051Z,1018.68
2023-01-27T02:41:02.042Z,1018.69
2023-01-27T02:42:02.041Z,1018.68
2023-01-27T02:43:02.057Z,1018.69
2023-01-27T02:44:02.033Z,1018.70
2023-01-27T02:45:02.000Z,1018.69
2023-01-27T02:46:02.107Z,1018.69
2023-01-27T02:47:01.981Z,1018.72
2023-01-27T02:48:02.031Z,1018.75
2023-01-27T02:49:02.136Z,1018.76
2023-01-27T02:50:01.955Z,1018.75
2023-01-27T02:51:01.938Z,1018.74
2023-01-27T02:52:01.932Z,1018.73
2023-01-27T02:53:01.911Z,1018.74
2023-01-27T02:54:01.915Z,1018.74
2023-01-27T02:55:02.261Z,1018.78
2023-01-27T02:56:01.900Z,1018.82
2023-01-27T02:57:01.882Z,1018.87
2023-01-27T02:58:01.871Z,1018.92
2023-01-27T02:59:01.861Z,1018.98
2023-01-27T03:00:01.852Z,1018.99
2023-01-27T03:01:02.109Z,1019.02
2023-01-27T03:02:01.833Z,1019.02
2023-01-27T03:03:01.809Z,1019.00
2023-01-27T03:04:01.810Z,1019.00
2023-01-27T03:05:01.802Z,1019.00
2023-01-27T03:06:01.813Z,1019.04
2023-01-27T03:07:01.943Z,1019.04
2023-01-27T03:08:01.787Z,1019.04
2023-01-27T03:09:01.770Z,1019.04
2023-01-27T03:10:01.751Z,1019.03
2023-01-27T03:11:01.739Z,1019.02
2023-01-27T03:12:01.740Z,1019.00
2023-01-27T03:13:01.757Z,1019.02
2023-01-27T03:14:01.705Z,1019.03
2023-01-27T03:15:01.702Z,1019.01
2023-01-27T03:16:01.745Z,1019.03
2023-01-27T03:17:01.670Z,1019.01
2023-01-27T03:18:01.662Z,1018.98
2023-01-27T03:19:01.677Z,1018.97
2023-01-27T03:20:01.640Z,1018.97
2023-01-27T03:21:01.647Z,1018.97
2023-01-27T03:22:01.627Z,1018.98
2023-01-27T03:23:01.626Z,1019.02
2023-01-27T03:24:01.629Z,1019.06
2023-01-27T03:25:01.756Z,1019.10
2023-01-27T03:26:01.590Z,1019.12
2023-01-27T03:27:01.588Z,1019.13
2023-01-27T03:28:01.595Z,1019.13
2023-01-27T03:29:01.573Z,1019.11
2023-01-27T03:30:01.595Z,1019.06
2023-01-27T03:31:01.761Z,1019.04
2023-01-27T03:32:01.519Z,1019.00
2023-01-27T03:33:01.504Z,1018.99
2023-01-27T03:34:01.493Z,1019.00
2023-01-27T03:35:01.505Z,1019.01
2023-01-27T03:36:01.502Z,1019.05
2023-01-27T03:37:01.655Z,1019.08
2023-01-27T03:38:01.448Z,1019.06
2023-01-27T03:39:01.446Z,1019.04
2023-01-27T03:40:01.433Z,1019.02
2023-01-27T03:41:01.426Z,1019.01
2023-01-27T03:42:01.404Z,1018.99
2023-01-27T03:43:01.452Z,1018.99
2023-01-27T03:44:01.385Z,1018.98
2023-01-27T03:45:01.390Z,1018.99
2023-01-27T03:46:01.433Z,1018.97
2023-01-27T03:47:01.357Z,1018.94
2023-01-27T03:48:01.346Z,1018.94
2023-01-27T03:49:01.516Z,1018.93
2023-01-27T03:50:01.339Z,1018.91
2023-01-27T03:51:01.313Z,1018.91
2023-01-27T03:52:01.306Z,1018.93
2023-01-27T03:53:01.290Z,1018.94
2023-01-27T03:54:01.281Z,1018.97
2023-01-27T03:55:01.464Z,1018.97
2023-01-27T03:56:01.260Z,1018.96
2023-01-27T03:57:01.259Z,1018.93
2023-01-27T03:58:01.245Z,1018.91
2023-01-27T03:59:01.250Z,1018.93
2023-01-27T04:00:01.216Z,1018.95
2023-01-27T04:01:01.519Z,1018.99
2023-01-27T04:02:01.192Z,1019.01
2023-01-27T04:03:01.313Z,1019.02
2023-01-27T04:04:01.182Z,1018.98
2023-01-27T04:05:01.170Z,1018.95
2023-01-27T04:06:01.161Z,1018.95
2023-01-27T04:07:01.318Z,1018.93
2023-01-27T04:08:01.137Z,1018.95
2023-01-27T04:09:01.141Z,1018.99
2023-01-27T04:10:01.123Z,1019.03
2023-01-27T04:11:01.112Z,1019.06
2023-01-27T04:12:01.101Z,1019.04
2023-01-27T04:13:01.264Z,1019.03
2023-01-27T04:14:01.071Z,1019.01
2023-01-27T04:15:01.076Z,1019.01
2023-01-27T04:16:01.091Z,1019.03
2023-01-27T04:17:01.117Z,1019.03
2023-01-27T04:18:01.093Z,1019.07
2023-01-27T04:19:01.194Z,1019.08
2023-01-27T04:20:01.020Z,1019.09
2023-01-27T04:21:01.002Z,1019.07
2023-01-27T04:22:00.994Z,1019.06
2023-01-27T04:23:00.986Z,1019.07
2023-01-27T04:24:01.007Z,1019.05
2023-01-27T04:25:01.008Z,1019.05
2023-01-27T04:26:00.958Z,1019.03
2023-01-27T04:27:00.953Z,1019.05
2023-01-27T04:28:00.927Z,1019.07
2023-01-27T04:29:00.938Z,1019.09
2023-01-27T04:30:00.911Z,1019.11
2023-01-27T04:31:01.123Z,1019.10
2023-01-27T04:32:00.912Z,1019.11
2023-01-27T04:33:00.905Z,1019.12
2023-01-27T04:34:00.864Z,1019.12
2023-01-27T04:35:00.870Z,1019.11
2023-01-27T04:36:00.844Z,1019.10
2023-01-27T04:37:01.116Z,1019.10
2023-01-27T04:38:00.818Z,1019.10
2023-01-27T04:39:00.822Z,1019.08
2023-01-27T04:40:00.826Z,1019.09
2023-01-27T04:41:00.811Z,1019.12
2023-01-27T04:42:00.789Z,1019.16
2023-01-27T04:43:00.934Z,1019.22
2023-01-27T04:44:00.761Z,1019.25
2023-01-27T04:45:00.767Z,1019.25
2023-01-27T04:46:00.770Z,1019.23
2023-01-27T04:47:00.734Z,1019.18
2023-01-27T04:48:00.727Z,1019.12
2023-01-27T04:49:00.902Z,1019.08
2023-01-27T04:50:00.697Z,1019.05
2023-01-27T04:51:00.694Z,1019.05
2023-01-27T04:52:00.672Z,1019.07
2023-01-27T04:53:00.688Z,1019.11
2023-01-27T04:54:00.653Z,1019.15
2023-01-27T04:55:00.808Z,1019.17
2023-01-27T04:56:00.635Z,1019.16
2023-01-27T04:57:00.640Z,1019.14
2023-01-27T04:58:00.622Z,1019.10
2023-01-27T04:59:00.611Z,1019.07
2023-01-27T05:00:00.634Z,1019.05
2023-01-27T05:01:00.895Z,1019.04
2023-01-27T05:02:00.675Z,1019.05
2023-01-27T05:03:00.609Z,1019.07
2023-01-27T05:04:00.553Z,1019.09
2023-01-27T05:05:00.596Z,1019.11
2023-01-27T05:06:00.540Z,1019.10
2023-01-27T05:07:00.680Z,1019.10
2023-01-27T05:08:07.523Z,1019.07
2023-01-27T05:09:00.501Z,1019.07
2023-01-27T05:10:00.493Z,1019.08
2023-01-27T05:11:00.483Z,1019.11
2023-01-27T05:12:00.481Z,1019.14
2023-01-27T05:13:00.504Z,1019.20
2023-01-27T05:14:00.459Z,1019.24
2023-01-27T05:15:00.443Z,1019.28
2023-01-27T05:16:00.486Z,1019.33
2023-01-27T05:17:00.483Z,1019.36
2023-01-27T05:18:00.410Z,1019.37
2023-01-27T05:19:00.556Z,1019.38
2023-01-27T05:20:00.389Z,1019.39
2023-01-27T05:21:00.380Z,1019.38
2023-01-27T05:22:00.361Z,1019.37
2023-01-27T05:23:00.358Z,1019.36
2023-01-27T05:24:00.364Z,1019.35
2023-01-27T05:25:00.381Z,1019.35
2023-01-27T05:26:00.322Z,1019.36
2023-01-27T05:27:00.323Z,1019.36
2023-01-27T05:28:00.306Z,1019.37
2023-01-27T05:29:00.305Z,1019.37
2023-01-27T05:30:00.286Z,1019.40
2023-01-27T05:31:00.558Z,1019.42
2023-01-27T05:32:00.321Z,1019.44
2023-01-27T05:33:00.256Z,1019.44
2023-01-27T05:34:00.263Z,1019.48
2023-01-27T05:35:00.246Z,1019.51
2023-01-27T05:36:00.250Z,1019.54
2023-01-27T05:37:00.530Z,1019.56
2023-01-27T05:38:00.201Z,1019.59
2023-01-27T05:39:00.222Z,1019.59
2023-01-27T05:40:00.238Z,1019.59
2023-01-27T05:41:00.164Z,1019.58
2023-01-27T05:42:00.157Z,1019.56
2023-01-27T05:43:00.303Z,1019.56
2023-01-27T05:44:00.210Z,1019.55
2023-01-27T05:45:00.153Z,1019.56
2023-01-27T05:46:00.124Z,1019.59
2023-01-27T05:47:00.107Z,1019.61
2023-01-27T05:48:00.105Z,1019.65
2023-01-27T05:49:00.248Z,1019.67
2023-01-27T05:50:00.100Z,1019.70
2023-01-27T05:51:00.121Z,1019.71
2023-01-27T05:52:00.058Z,1019.71
2023-01-27T05:53:00.051Z,1019.68
2023-01-27T05:54:00.032Z,1019.67
2023-01-27T05:55:00.173Z,1019.66
2023-01-27T05:56:00.030Z,1019.66
2023-01-27T05:57:00.003Z,1019.66
2023-01-27T05:57:59.997Z,1019.69
2023-01-27T05:59:00.022Z,1019.71
2023-01-27T05:59:59.970Z,1019.73
2023-01-27T06:01:00.131Z,1019.76
2023-01-27T06:01:59.980Z,1019.77
2023-01-27T06:03:00.006Z,1019.77
2023-01-27T06:03:59.939Z,1019.79
2023-01-27T06:04:59.929Z,1019.80
2023-01-27T06:05:59.905Z,1019.79
2023-01-27T06:07:00.206Z,1019.80
2023-01-27T06:08:07.026Z,1019.83
2023-01-27T06:08:59.881Z,1019.83
2023-01-27T06:09:59.864Z,1019.84
2023-01-27T06:10:59.855Z,1019.85
2023-01-27T06:11:59.843Z,1019.84
2023-01-27T06:12:59.996Z,1019.84
2023-01-27T06:13:59.844Z,1019.83
2023-01-27T06:14:59.827Z,1019.81
2023-01-27T06:15:59.809Z,1019.81
2023-01-27T06:16:59.802Z,1019.81
2023-01-27T06:17:59.780Z,1019.82
2023-01-27T06:18:59.841Z,1019.82
2023-01-27T06:19:59.813Z,1019.81
2023-01-27T06:20:59.775Z,1019.80
2023-01-27T06:21:59.744Z,1019.78
2023-01-27T06:22:59.770Z,1019.78
2023-01-27T06:23:59.821Z,1019.77
2023-01-27T06:24:59.868Z,1019.76
2023-01-27T06:25:59.713Z,1019.77
2023-01-27T06:26:59.719Z,1019.76
2023-01-27T06:27:59.680Z,1019.75
2023-01-27T06:28:59.681Z,1019.73
2023-01-27T06:29:59.678Z,1019.72
2023-01-27T06:30:59.822Z,1019.72
2023-01-27T06:31:59.703Z,1019.72
2023-01-27T06:32:59.647Z,1019.72
2023-01-27T06:33:59.620Z,1019.73
2023-01-27T06:34:59.610Z,1019.77
2023-01-27T06:35:59.631Z,1019.80
2023-01-27T06:37:00.088Z,1019.85
2023-01-27T06:37:59.577Z,1019.89
2023-01-27T06:38:59.572Z,1019.90
2023-01-27T06:39:59.550Z,1019.91
2023-01-27T06:40:59.549Z,1019.92
2023-01-27T06:41:59.690Z,1019.91
2023-01-27T06:42:59.533Z,1019.90
2023-01-27T06:43:59.513Z,1019.92
2023-01-27T06:44:59.599Z,1019.96
2023-01-27T06:45:59.584Z,1020.00
2023-01-27T06:46:59.485Z,1020.04
2023-01-27T06:47:59.677Z,1020.06
2023-01-27T06:48:59.464Z,1020.07
2023-01-27T06:49:59.468Z,1020.08
2023-01-27T06:50:59.441Z,1020.10
2023-01-27T06:51:59.395Z,1020.13
2023-01-27T06:52:59.373Z,1020.15
2023-01-27T06:53:59.517Z,1020.17
2023-01-27T06:54:59.348Z,1020.15
2023-01-27T06:55:59.388Z,1020.13
2023-01-27T06:56:59.354Z,1020.11
2023-01-27T06:57:59.326Z,1020.09
2023-01-27T06:58:59.308Z,1020.05
2023-01-27T06:59:59.455Z,1020.04
2023-01-27T07:00:59.287Z,1020.03
2023-01-27T07:01:59.283Z,1020.03
2023-01-27T07:02:59.322Z,1020.02
2023-01-27T07:03:59.307Z,1020.02
2023-01-27T07:04:59.298Z,1020.02
2023-01-27T07:05:59.560Z,1020.02
2023-01-27T07:06:59.229Z,1020.03
2023-01-27T07:08:00.043Z,1020.04
2023-01-27T07:08:59.219Z,1020.03
2023-01-27T07:09:59.187Z,1020.02
2023-01-27T07:10:59.181Z,1020.00
2023-01-27T07:11:59.237Z,1020.00
2023-01-27T07:12:59.164Z,1020.00
2023-01-27T07:13:59.151Z,1020.01
2023-01-27T07:14:59.147Z,1020.02
2023-01-27T07:15:59.192Z,1020.04
2023-01-27T07:16:59.115Z,1020.04
2023-01-27T07:17:59.262Z,1020.05
2023-01-27T07:18:59.105Z,1020.05
2023-01-27T07:19:59.089Z,1020.04
2023-01-27T07:20:59.099Z,1020.03
2023-01-27T07:21:59.066Z,1020.02
2023-01-27T07:22:59.059Z,1020.03
2023-01-27T07:23:59.143Z,1020.05
2023-01-27T07:24:59.043Z,1020.08
2023-01-27T07:26:00.910Z,1020.13
2023-01-27T07:26:59.022Z,1020.18
2023-01-27T07:27:59.001Z,1020.23
2023-01-27T07:28:58.992Z,1020.28
2023-01-27T07:29:59.182Z,1020.30
2023-01-27T07:30:59.008Z,1020.31
2023-01-27T07:31:59.033Z,1020.31
2023-01-27T07:32:58.959Z,1020.30
2023-01-27T07:33:58.937Z,1020.30
2023-01-27T07:34:58.933Z,1020.30
2023-01-27T07:35:59.210Z,1020.31
2023-01-27T07:36:58.915Z,1020.32
2023-01-27T07:37:58.907Z,1020.34
2023-01-27T07:38:58.886Z,1020.37
2023-01-27T07:39:58.879Z,1020.39
2023-01-27T07:40:58.860Z,1020.44
2023-01-27T07:41:59.081Z,1020.45
2023-01-27T07:42:58.850Z,1020.47
2023-01-27T07:43:58.842Z,1020.48
2023-01-27T07:44:58.829Z,1020.50
2023-01-27T07:45:58.913Z,1020.51
2023-01-27T07:46:58.803Z,1020.50
2023-01-27T07:47:58.927Z,1020.50
2023-01-27T07:48:58.792Z,1020.50
2023-01-27T07:49:58.771Z,1020.51
2023-01-27T07:50:58.767Z,1020.53
2023-01-27T07:51:58.759Z,1020.56
2023-01-27T07:52:58.744Z,1020.57
2023-01-27T07:54:00.766Z,1020.58
2023-01-27T07:54:58.730Z,1020.57
2023-01-27T07:55:58.716Z,1020.57
2023-01-27T07:56:58.700Z,1020.58
2023-01-27T07:57:58.706Z,1020.59
2023-01-27T07:58:58.682Z,1020.60
2023-01-27T07:59:58.969Z,1020.62
2023-01-27T08:00:58.732Z,1020.64
2023-01-27T08:01:58.660Z,1020.66
2023-01-27T08:02:58.705Z,1020.67
2023-01-27T08:03:58.634Z,1020.68
2023-01-27T08:04:58.616Z,1020.68
2023-01-27T08:05:59.065Z,1020.68
2023-01-27T08:06:58.604Z,1020.66
2023-01-27T08:08:06.083Z,1020.63
2023-01-27T08:08:58.574Z,1020.62
2023-01-27T08:09:58.566Z,1020.62
2023-01-27T08:10:58.551Z,1020.65
2023-01-27T08:11:58.978Z,1020.67
2023-01-27T08:12:58.564Z,1020.70
2023-01-27T08:13:58.548Z,1020.72
2023-01-27T08:14:58.515Z,1020.73
2023-01-27T08:15:58.628Z,1020.74
2023-01-27T08:16:58.490Z,1020.72
2023-01-27T08:17:58.669Z,1020.71
2023-01-27T08:18:58.477Z,1020.70
2023-01-27T08:19:58.461Z,1020.70
2023-01-27T08:20:58.461Z,1020.70
2023-01-27T08:21:58.442Z,1020.69
2023-01-27T08:22:58.431Z,1020.67
2023-01-27T08:23:58.487Z,1020.65
2023-01-27T08:24:58.407Z,1020.64
2023-01-27T08:25:58.401Z,1020.63
2023-01-27T08:26:58.387Z,1020.63
2023-01-27T08:27:58.399Z,1020.61
2023-01-27T08:28:58.376Z,1020.60
2023-01-27T08:29:58.392Z,1020.58
2023-01-27T08:30:58.422Z,1020.58
2023-01-27T08:31:58.387Z,1020.57
2023-01-27T08:32:58.321Z,1020.59
2023-01-27T08:33:58.331Z,1020.60
2023-01-27T08:34:58.303Z,1020.61
2023-01-27T08:35:58.495Z,1020.61
2023-01-27T08:36:58.288Z,1020.59
2023-01-27T08:37:58.288Z,1020.57
2023-01-27T08:38:58.263Z,1020.55
2023-01-27T08:39:58.264Z,1020.53
2023-01-27T08:40:58.242Z,1020.49
2023-01-27T08:41:58.394Z,1020.48
2023-01-27T08:42:58.223Z,1020.46
2023-01-27T08:43:58.214Z,1020.45
2023-01-27T08:44:58.205Z,1020.45
2023-01-27T08:45:58.224Z,1020.47
2023-01-27T08:46:58.184Z,1020.45
2023-01-27T08:47:58.292Z,1020.44
2023-01-27T08:48:58.172Z,1020.45
2023-01-27T08:49:58.170Z,1020.42
2023-01-27T08:50:58.142Z,1020.45
2023-01-27T08:51:58.144Z,1020.46
2023-01-27T08:52:58.123Z,1020.48
2023-01-27T08:53:58.305Z,1020.52
2023-01-27T08:54:58.128Z,1020.55
2023-01-27T08:55:58.093Z,1020.59
2023-01-27T08:56:58.083Z,1020.62
2023-01-27T08:57:58.073Z,1020.64
2023-01-27T08:58:58.064Z,1020.64
2023-01-27T08:59:58.209Z,1020.65
2023-01-27T09:00:58.071Z,1020.66
2023-01-27T09:01:58.033Z,1020.64
2023-01-27T09:02:58.021Z,1020.64
2023-01-27T09:03:58.011Z,1020.62
2023-01-27T09:04:58.005Z,1020.64
2023-01-27T09:05:58.050Z,1020.66
2023-01-27T09:06:57.988Z,1020.67
2023-01-27T09:08:05.096Z,1020.68
2023-01-27T09:08:57.975Z,1020.68
2023-01-27T09:10:12.660Z,1020.69
2023-01-27T09:10:57.978Z,1020.68
2023-01-27T09:11:58.078Z,1020.68
2023-01-27T09:12:57.919Z,1020.70
2023-01-27T09:13:57.907Z,1020.72
2023-01-27T09:14:57.898Z,1020.73
2023-01-27T09:15:57.927Z,1020.74
2023-01-27T09:16:57.887Z,1020.74
2023-01-27T09:17:57.943Z,1020.77
2023-01-27T09:18:57.849Z,1020.76
2023-01-27T09:19:57.883Z,1020.76
2023-01-27T09:20:57.827Z,1020.75
2023-01-27T09:21:57.825Z,1020.76
2023-01-27T09:22:57.806Z,1020.74
2023-01-27T09:23:58.010Z,1020.73
2023-01-27T09:24:57.790Z,1020.74
2023-01-27T09:25:57.784Z,1020.74
2023-01-27T09:27:00.063Z,1020.76
2023-01-27T09:27:57.762Z,1020.78
2023-01-27T09:28:57.745Z,1020.79
2023-01-27T09:29:57.895Z,1020.78
2023-01-27T09:30:57.833Z,1020.77
2023-01-27T09:31:57.754Z,1020.78
2023-01-27T09:32:57.714Z,1020.79
2023-01-27T09:33:57.716Z,1020.81
2023-01-27T09:34:57.693Z,1020.85
2023-01-27T09:35:57.830Z,1020.86
2023-01-27T09:36:57.689Z,1020.88
2023-01-27T09:37:57.663Z,1020.90
2023-01-27T09:38:57.645Z,1020.88
2023-01-27T09:39:57.642Z,1020.87
2023-01-27T09:40:57.634Z,1020.85
2023-01-27T09:41:57.669Z,1020.83
2023-01-27T09:42:57.615Z,1020.80
2023-01-27T09:43:57.600Z,1020.80
2023-01-27T09:44:57.584Z,1020.80
2023-01-27T09:45:57.579Z,1020.83
2023-01-27T09:46:59.858Z,1020.85
2023-01-27T09:47:57.723Z,1020.88
2023-01-27T09:48:57.546Z,1020.91
2023-01-27T09:49:57.539Z,1020.91
2023-01-27T09:50:57.539Z,1020.93
2023-01-27T09:51:57.521Z,1020.91
2023-01-27T09:52:57.537Z,1020.90
2023-01-27T09:53:57.640Z,1020.89
2023-01-27T09:54:57.480Z,1020.89
2023-01-27T09:55:57.484Z,1020.88
2023-01-27T09:56:57.460Z,1020.91
2023-01-27T09:57:57.449Z,1020.94
2023-01-27T09:58:57.446Z,1020.97
2023-01-27T09:59:57.583Z,1021.00
2023-01-27T10:00:57.412Z,1021.01
2023-01-27T10:01:57.411Z,1021.01
2023-01-27T10:02:57.401Z,1020.98
2023-01-27T10:03:57.393Z,1020.97
2023-01-27T10:04:57.484Z,1020.94
2023-01-27T10:05:57.521Z,1020.91
2023-01-27T10:06:57.352Z,1020.89
2023-01-27T10:08:04.631Z,1020.87
2023-01-27T10:08:57.337Z,1020.84
2023-01-27T10:09:57.327Z,1020.83
2023-01-27T10:10:57.317Z,1020.83
2023-01-27T10:11:57.663Z,1020.85
2023-01-27T10:12:57.297Z,1020.86
2023-01-27T10:13:57.284Z,1020.87
2023-01-27T10:14:57.269Z,1020.89
2023-01-27T10:15:57.371Z,1020.90
2023-01-27T10:16:57.246Z,1020.91
2023-01-27T10:17:57.443Z,1020.92
2023-01-27T10:18:57.230Z,1020.94
2023-01-27T10:19:57.236Z,1020.95
2023-01-27T10:20:57.277Z,1020.97
2023-01-27T10:21:59.880Z,1020.99
2023-01-27T10:22:57.189Z,1021.00
2023-01-27T10:23:57.289Z,1021.00
2023-01-27T10:24:57.214Z,1020.99
2023-01-27T10:25:57.265Z,1020.96
2023-01-27T10:26:57.152Z,1020.94
2023-01-27T10:27:57.144Z,1020.93
2023-01-27T10:28:57.127Z,1020.91
2023-01-27T10:29:57.277Z,1020.91
2023-01-27T10:30:57.138Z,1020.92
2023-01-27T10:31:57.234Z,1020.93
2023-01-27T10:32:57.095Z,1020.94
2023-01-27T10:33:57.643Z,1020.95
2023-01-27T10:34:57.068Z,1020.97
2023-01-27T10:35:57.107Z,1020.98
2023-01-27T10:36:57.044Z,1020.98
2023-01-27T10:37:57.035Z,1020.98
2023-01-27T10:38:57.021Z,1020.98
2023-01-27T10:39:57.023Z,1020.99
2023-01-27T10:40:57.013Z,1020.99
2023-01-27T10:41:57.174Z,1020.99
2023-01-27T10:42:56.985Z,1020.99
2023-01-27T10:43:56.975Z,1020.98
2023-01-27T10:44:56.961Z,1020.97
2023-01-27T10:45:56.973Z,1020.97
2023-01-27T10:46:57.018Z,1020.97
2023-01-27T10:47:56.984Z,1020.98
2023-01-27T10:48:56.927Z,1020.96
2023-01-27T10:49:56.918Z,1020.94
2023-01-27T10:50:56.906Z,1020.93
2023-01-27T10:51:56.956Z,1020.92
2023-01-27T10:52:56.881Z,1020.88
2023-01-27T10:53:57.032Z,1020.87
2023-01-27T10:54:57.572Z,1020.86
2023-01-27T10:55:56.857Z,1020.87
2023-01-27T10:56:57.625Z,1020.88
2023-01-27T10:57:56.832Z,1020.92
2023-01-27T10:58:56.811Z,1020.95
2023-01-27T11:00:22.952Z,1020.96
2023-01-27T11:01:19.893Z,1020.98
2023-01-27T11:01:56.841Z,1020.96
2023-01-27T11:02:56.781Z,1020.95
2023-01-27T11:03:56.824Z,1020.93
2023-01-27T11:04:56.753Z,1020.90
2023-01-27T11:05:56.909Z,1020.89
2023-01-27T11:06:56.728Z,1020.89
2023-01-27T11:08:04.192Z,1020.89
2023-01-27T11:08:56.742Z,1020.89
2023-01-27T11:09:56.724Z,1020.90
2023-01-27T11:10:56.691Z,1020.89
2023-01-27T11:11:56.851Z,1020.88
2023-01-27T11:12:56.669Z,1020.85
2023-01-27T11:13:56.666Z,1020.84
2023-01-27T11:14:56.655Z,1020.84
2023-01-27T11:15:56.640Z,1020.84
2023-01-27T11:16:56.641Z,1020.84
2023-01-27T11:17:56.797Z,1020.85
2023-01-27T11:18:56.609Z,1020.85
2023-01-27T11:19:56.597Z,1020.85
2023-01-27T11:20:56.582Z,1020.86
2023-01-27T11:22:07.015Z,1020.85
2023-01-27T11:22:56.573Z,1020.86
2023-01-27T11:23:56.896Z,1020.86
2023-01-27T11:24:56.570Z,1020.85
2023-01-27T11:25:56.540Z,1020.84
2023-01-27T11:26:56.527Z,1020.81
2023-01-27T11:27:56.522Z,1020.79
2023-01-27T11:28:56.508Z,1020.78
2023-01-27T11:29:56.668Z,1020.78
2023-01-27T11:30:56.570Z,1020.79
2023-01-27T11:31:56.606Z,1020.79
2023-01-27T11:32:56.468Z,1020.80
2023-01-27T11:33:56.447Z,1020.81
2023-01-27T11:34:56.445Z,1020.80
2023-01-27T11:35:56.586Z,1020.79
2023-01-27T11:36:56.426Z,1020.76
2023-01-27T11:38:09.926Z,1020.72
2023-01-27T11:38:56.413Z,1020.68
2023-01-27T11:39:56.395Z,1020.63
2023-01-27T11:40:56.431Z,1020.61
2023-01-27T11:41:56.525Z,1020.59
2023-01-27T11:42:56.356Z,1020.59
2023-01-27T11:43:56.347Z,1020.61
2023-01-27T11:44:56.346Z,1020.60
2023-01-27T11:45:56.374Z,1020.60
2023-01-27T11:46:56.319Z,1020.59
2023-01-27T11:47:56.334Z,1020.58
2023-01-27T11:48:56.303Z,1020.56
2023-01-27T11:49:56.290Z,1020.54
2023-01-27T11:50:56.286Z,1020.51
2023-01-27T11:51:56.262Z,1020.50
2023-01-27T11:52:56.260Z,1020.49
2023-01-27T11:53:56.391Z,1020.49
2023-01-27T11:54:56.239Z,1020.48
2023-01-27T11:55:56.222Z,1020.47
2023-01-27T11:56:56.228Z,1020.47
2023-01-27T11:57:56.202Z,1020.46
2023-01-27T11:58:56.191Z,1020.45
2023-01-27T11:59:56.344Z,1020.44
2023-01-27T12:00:56.170Z,1020.41
2023-01-27T12:01:56.169Z,1020.39
2023-01-27T12:02:56.170Z,1020.37
2023-01-27T12:03:56.194Z,1020.35
2023-01-27T12:04:56.253Z,1020.33
2023-01-27T12:05:56.160Z,1020.33